createdAt,value
2017-11-17T00:01:43.655Z,0.80
2017-11-17T00:04:12.738Z,0.90
2017-11-17T00:06:41.830Z,0.80
2017-11-17T00:09:11.226Z,0.80
2017-11-17T00:11:40.316Z,0.80
2017-11-17T00:14:10.071Z,1.00
2017-11-17T00:16:38.448Z,1.00
2017-11-17T00:19:06.774Z,1.00
2017-11-17T00:21:35.103Z,0.80
2017-11-17T00:24:03.469Z,0.80
2017-11-17T00:26:31.796Z,0.70
2017-11-17T00:29:00.128Z,0.70
2017-11-17T00:31:28.678Z,0.80
2017-11-17T00:33:57.772Z,0.80
2017-11-17T00:36:26.909Z,0.70
2017-11-17T00:38:55.235Z,0.70
2017-11-17T00:41:24.331Z,0.80
2017-11-17T00:43:53.448Z,0.80
2017-11-17T00:46:21.768Z,0.70
2017-11-17T00:48:50.092Z,0.60
2017-11-17T00:51:19.450Z,0.60
2017-11-17T00:53:47.776Z,0.60
2017-11-17T00:56:16.105Z,0.60
2017-11-17T00:58:44.476Z,0.60
2017-11-17T01:01:12.798Z,0.60
2017-11-17T01:03:41.899Z,0.70
2017-11-17T01:06:10.666Z,0.70
2017-11-17T01:08:40.247Z,0.60
2017-11-17T01:11:08.576Z,0.60
2017-11-17T01:13:37.575Z,0.60
2017-11-17T01:16:05.907Z,0.60
2017-11-17T01:18:34.245Z,0.60
2017-11-17T01:21:02.818Z,0.60
2017-11-17T01:23:31.148Z,0.60
2017-11-17T01:25:59.475Z,0.60
2017-11-17T01:28:27.844Z,0.70
2017-11-17T01:30:56.167Z,0.60
2017-11-17T01:33:24.528Z,0.60
2017-11-17T01:35:52.583Z,0.60
2017-11-17T01:38:20.908Z,0.80
2017-11-17T01:40:50.000Z,0.80
2017-11-17T01:43:18.055Z,0.80
2017-11-17T01:45:46.392Z,0.90
2017-11-17T01:48:14.719Z,0.80
2017-11-17T01:50:43.068Z,0.70
2017-11-17T01:53:12.383Z,0.80
2017-11-17T01:55:40.061Z,0.90
2017-11-17T01:58:08.610Z,0.90
2017-11-17T02:00:37.629Z,0.80
2017-11-17T02:03:05.949Z,0.80
2017-11-17T02:05:34.290Z,0.80
2017-11-17T02:08:02.822Z,0.80
2017-11-17T02:10:30.824Z,0.80
2017-11-17T02:13:00.172Z,0.60
2017-11-17T02:15:28.190Z,0.60
2017-11-17T02:17:56.520Z,0.60
2017-11-17T02:20:24.219Z,0.60
2017-11-17T02:22:52.591Z,0.60
2017-11-17T02:25:20.427Z,0.60
2017-11-17T02:27:48.127Z,0.60
2017-11-17T02:30:16.316Z,0.60
2017-11-17T02:32:43.993Z,0.70
2017-11-17T02:35:12.229Z,0.70
2017-11-17T02:37:40.479Z,0.70
2017-11-17T02:40:08.476Z,0.60
2017-11-17T02:42:36.269Z,0.60
2017-11-17T02:45:04.128Z,0.90
2017-11-17T02:47:32.352Z,1.00
2017-11-17T02:50:00.348Z,0.90
2017-11-17T02:52:29.048Z,0.70
2017-11-17T02:54:57.428Z,0.90
2017-11-17T02:57:25.086Z,1.10
2017-11-17T02:59:53.420Z,1.10
2017-11-17T03:02:22.136Z,0.90
2017-11-17T03:04:50.464Z,0.80
2017-11-17T03:07:18.798Z,0.90
2017-11-17T03:09:47.014Z,1.00
2017-11-17T03:12:15.008Z,0.90
2017-11-17T03:14:43.028Z,0.90
2017-11-17T03:17:11.892Z,0.90
2017-11-17T03:19:40.139Z,0.80
2017-11-17T03:22:08.136Z,0.70
2017-11-17T03:24:36.496Z,0.60
2017-11-17T03:27:04.767Z,0.50
2017-11-17T03:29:32.443Z,0.50
2017-11-17T03:32:01.733Z,0.50
2017-11-17T03:34:29.755Z,0.50
2017-11-17T03:36:58.764Z,0.50
2017-11-17T03:39:26.771Z,0.50
2017-11-17T03:41:56.311Z,0.50
2017-11-17T03:44:25.419Z,0.50
2017-11-17T03:46:53.151Z,0.50
2017-11-17T03:49:21.146Z,0.50
2017-11-17T03:51:51.140Z,0.50
2017-11-17T03:54:19.186Z,0.50
2017-11-17T03:56:47.515Z,0.50
2017-11-17T03:59:15.848Z,0.50
2017-11-17T04:01:45.182Z,0.40
2017-11-17T04:04:13.954Z,0.50
2017-11-17T04:06:42.143Z,0.50
2017-11-17T04:09:11.283Z,0.50
2017-11-17T04:11:40.594Z,0.50
2017-11-17T04:14:09.461Z,0.60
2017-11-17T04:16:37.843Z,0.60
2017-11-17T04:19:06.165Z,0.70
2017-11-17T04:21:34.517Z,0.70
2017-11-17T04:24:02.728Z,0.70
2017-11-17T04:26:31.819Z,0.60
2017-11-17T04:29:00.960Z,0.70
2017-11-17T04:31:29.286Z,0.70
2017-11-17T04:33:58.382Z,0.60
2017-11-17T04:36:27.551Z,0.60
2017-11-17T04:38:55.884Z,0.60
2017-11-17T04:41:24.217Z,0.50
2017-11-17T04:43:52.433Z,0.60
2017-11-17T04:46:20.808Z,0.60
2017-11-17T04:48:48.839Z,0.60
2017-11-17T04:51:17.164Z,0.50
2017-11-17T04:53:45.155Z,0.70
2017-11-17T04:56:13.530Z,1.00
2017-11-17T04:58:41.855Z,0.80
2017-11-17T05:01:10.827Z,0.70
2017-11-17T05:03:39.855Z,0.70
2017-11-17T05:06:08.211Z,0.60
2017-11-17T05:08:36.559Z,0.50
2017-11-17T05:11:04.892Z,0.50
2017-11-17T05:13:33.232Z,0.50
2017-11-17T05:16:01.583Z,0.70
2017-11-17T05:18:29.903Z,0.70
2017-11-17T05:20:59.036Z,0.60
2017-11-17T05:23:27.367Z,0.60
2017-11-17T05:25:55.747Z,0.60
2017-11-17T05:28:24.859Z,0.60
2017-11-17T05:30:53.208Z,0.60
2017-11-17T05:33:21.540Z,0.60
2017-11-17T05:35:49.862Z,0.60
2017-11-17T05:38:18.245Z,0.60
2017-11-17T05:40:46.586Z,0.60
2017-11-17T05:43:14.910Z,0.70
2017-11-17T05:45:44.024Z,0.60
2017-11-17T05:48:12.364Z,0.60
2017-11-17T05:50:41.351Z,0.50
2017-11-17T05:53:10.140Z,0.60
2017-11-17T05:55:38.463Z,0.60
2017-11-17T05:58:06.832Z,0.60
2017-11-17T06:00:35.170Z,0.60
2017-11-17T06:03:03.508Z,0.60
2017-11-17T06:05:31.858Z,0.60
2017-11-17T06:08:00.192Z,0.60
2017-11-17T06:10:28.559Z,0.70
2017-11-17T06:12:56.888Z,0.70
2017-11-17T06:15:25.211Z,0.60
2017-11-17T06:17:53.571Z,0.70
2017-11-17T06:20:22.103Z,0.60
2017-11-17T06:22:51.219Z,0.60
2017-11-17T06:25:19.028Z,0.60
2017-11-17T06:27:47.568Z,0.70
2017-11-17T06:30:16.652Z,0.70
2017-11-17T06:32:45.982Z,0.60
2017-11-17T06:35:14.308Z,0.60
2017-11-17T06:37:42.650Z,0.60
2017-11-17T06:40:11.803Z,0.60
2017-11-17T06:42:41.616Z,0.60
2017-11-17T06:45:10.706Z,0.70
2017-11-17T06:47:39.831Z,0.60
2017-11-17T06:50:08.163Z,0.60
2017-11-17T06:52:36.732Z,0.70
2017-11-17T06:55:05.060Z,0.60
2017-11-17T06:57:33.452Z,0.60
2017-11-17T07:00:01.803Z,0.60
2017-11-17T07:02:30.126Z,0.60
2017-11-17T07:04:58.491Z,0.60
2017-11-17T07:07:26.856Z,0.70
2017-11-17T07:09:55.192Z,0.80
2017-11-17T07:12:24.615Z,0.80
2017-11-17T07:14:52.968Z,0.80
2017-11-17T07:17:22.070Z,0.70
2017-11-17T07:19:51.158Z,0.70
2017-11-17T07:22:21.288Z,0.70
2017-11-17T07:24:50.383Z,0.70
2017-11-17T07:27:19.476Z,0.60
2017-11-17T07:29:48.619Z,0.70
2017-11-17T07:32:16.955Z,0.70
2017-11-17T07:34:44.957Z,0.70
2017-11-17T07:37:13.504Z,0.70
2017-11-17T07:39:42.848Z,0.70
2017-11-17T07:42:12.197Z,0.70
2017-11-17T07:44:41.297Z,0.90
2017-11-17T07:47:11.084Z,0.80
2017-11-17T07:49:40.115Z,0.80
2017-11-17T07:52:10.008Z,0.90
2017-11-17T07:54:39.202Z,0.90
2017-11-17T07:57:07.713Z,0.90
2017-11-17T07:59:36.263Z,0.90
2017-11-17T08:02:06.388Z,0.80
2017-11-17T08:04:35.480Z,0.80
2017-11-17T08:07:04.653Z,0.80
2017-11-17T08:09:32.842Z,0.80
2017-11-17T08:12:02.348Z,0.90
2017-11-17T08:14:31.444Z,0.90
2017-11-17T08:17:11.818Z,0.90
2017-11-17T08:19:40.151Z,0.90
2017-11-17T08:22:08.480Z,0.90
2017-11-17T08:24:36.857Z,1.10
2017-11-17T08:27:05.188Z,1.00
2017-11-17T08:29:33.513Z,1.00
2017-11-17T08:32:02.895Z,1.00
2017-11-17T08:34:32.234Z,0.90
2017-11-17T08:37:00.788Z,0.90
2017-11-17T08:39:29.122Z,0.90
2017-11-17T08:41:58.500Z,0.90
2017-11-17T08:44:26.820Z,0.90
2017-11-17T08:46:55.944Z,0.80
2017-11-17T08:49:24.472Z,0.80
2017-11-17T08:51:53.507Z,0.80
2017-11-17T08:54:21.936Z,0.90
2017-11-17T08:56:49.933Z,0.80
2017-11-17T08:59:18.479Z,0.90
2017-11-17T09:01:48.597Z,0.90
2017-11-17T09:04:16.951Z,0.90
2017-11-17T09:06:45.319Z,1.00
2017-11-17T09:09:13.652Z,1.00
2017-11-17T09:11:43.027Z,1.00
2017-11-17T09:14:11.373Z,1.20
2017-11-17T09:16:40.320Z,1.20
2017-11-17T09:19:08.700Z,1.30
2017-11-17T09:21:37.980Z,1.20
2017-11-17T09:24:06.508Z,1.10
2017-11-17T09:26:35.652Z,1.20
2017-11-17T09:29:03.980Z,1.10
2017-11-17T09:31:32.303Z,1.20
2017-11-17T09:34:00.655Z,1.40
2017-11-17T09:36:28.979Z,1.50
2017-11-17T09:38:57.336Z,1.50
2017-11-17T09:41:25.907Z,1.70
2017-11-17T09:43:54.260Z,1.70
2017-11-17T09:46:22.649Z,1.50
2017-11-17T09:48:51.203Z,1.30
2017-11-17T09:51:20.303Z,1.20
2017-11-17T09:53:49.283Z,1.20
2017-11-17T09:56:18.392Z,1.10
2017-11-17T09:58:46.727Z,1.10
2017-11-17T10:01:15.268Z,1.10
2017-11-17T10:03:43.595Z,1.10
2017-11-17T10:06:11.976Z,1.30
2017-11-17T10:08:40.306Z,1.30
2017-11-17T10:11:07.967Z,1.30
2017-11-17T10:13:36.427Z,1.30
2017-11-17T10:16:04.757Z,1.30
2017-11-17T10:18:33.085Z,1.30
2017-11-17T10:21:01.215Z,1.30
2017-11-17T10:23:29.579Z,1.30
2017-11-17T10:25:57.914Z,1.20
2017-11-17T10:28:26.241Z,1.20
2017-11-17T10:30:54.604Z,1.20
2017-11-17T10:33:22.935Z,1.30
2017-11-17T10:35:51.262Z,1.30
2017-11-17T10:38:19.859Z,1.30
2017-11-17T10:40:47.540Z,1.30
2017-11-17T10:43:16.635Z,1.30
2017-11-17T10:45:45.756Z,1.30
2017-11-17T10:48:14.966Z,1.30
2017-11-17T10:50:43.291Z,1.40
2017-11-17T10:53:12.380Z,1.40
2017-11-17T10:55:40.716Z,1.40
2017-11-17T10:58:09.444Z,1.50
2017-11-17T11:00:38.540Z,1.50
2017-11-17T11:03:06.582Z,1.50
2017-11-17T11:05:34.903Z,1.50
2017-11-17T11:08:03.672Z,1.50
2017-11-17T11:10:38.151Z,1.50
2017-11-17T11:13:05.883Z,1.50
2017-11-17T11:15:34.455Z,1.50
2017-11-17T11:18:03.416Z,1.50
2017-11-17T11:20:31.964Z,1.50
2017-11-17T11:23:00.293Z,1.50
2017-11-17T11:25:29.626Z,1.50
2017-11-17T11:27:57.958Z,1.40
2017-11-17T11:30:26.481Z,1.50
2017-11-17T11:32:54.830Z,1.40
2017-11-17T11:35:23.821Z,1.50
2017-11-17T11:37:52.952Z,1.50
2017-11-17T11:40:20.615Z,1.50
2017-11-17T11:42:48.949Z,1.50
2017-11-17T11:45:17.075Z,1.60
2017-11-17T11:47:45.400Z,1.60
2017-11-17T11:50:14.696Z,1.60
2017-11-17T11:52:43.812Z,1.60
2017-11-17T11:55:12.188Z,1.50
2017-11-17T11:57:41.407Z,1.50
2017-11-17T12:00:10.586Z,1.50
2017-11-17T12:02:38.912Z,1.60
2017-11-17T12:05:07.241Z,1.60
2017-11-17T12:07:35.583Z,1.60
2017-11-17T12:10:04.024Z,1.60
2017-11-17T12:12:32.346Z,1.60
2017-11-17T12:15:01.443Z,1.70
2017-11-17T12:17:30.559Z,1.80
2017-11-17T12:19:58.893Z,1.80
2017-11-17T12:22:27.260Z,1.70
2017-11-17T12:24:55.587Z,1.70
2017-11-17T12:27:23.970Z,1.80
2017-11-17T12:29:52.347Z,1.80
2017-11-17T12:32:20.688Z,1.70
2017-11-17T12:34:48.556Z,1.70
2017-11-17T12:37:16.927Z,1.90
2017-11-17T12:39:45.471Z,1.80
2017-11-17T12:42:14.903Z,1.80
2017-11-17T12:44:43.233Z,1.80
2017-11-17T12:47:11.568Z,1.80
2017-11-17T12:49:40.883Z,1.80
2017-11-17T12:52:10.032Z,1.90
2017-11-17T12:54:38.387Z,1.90
2017-11-17T12:57:06.718Z,1.90
2017-11-17T12:59:35.053Z,1.90
2017-11-17T13:02:03.417Z,1.90
2017-11-17T13:04:31.984Z,1.90
2017-11-17T13:07:00.311Z,1.90
2017-11-17T13:09:28.889Z,2.00
2017-11-17T13:11:57.219Z,2.00
2017-11-17T13:14:25.564Z,2.00
2017-11-17T13:16:53.926Z,2.00
2017-11-17T13:19:22.257Z,2.00
2017-11-17T13:21:50.587Z,2.00
2017-11-17T13:24:18.947Z,2.00
2017-11-17T13:26:47.472Z,2.00
2017-11-17T13:55:14.936Z,2.10
2017-11-17T13:57:43.263Z,2.00
2017-11-17T14:00:11.595Z,1.90
2017-11-17T14:02:40.901Z,2.00
2017-11-17T14:05:09.523Z,1.90
2017-11-17T14:07:37.884Z,1.90
2017-11-17T14:10:06.207Z,1.90
2017-11-17T14:12:35.295Z,2.00
2017-11-17T14:15:04.435Z,2.00
2017-11-17T14:17:32.770Z,2.00
2017-11-17T14:20:01.861Z,1.90
2017-11-17T14:22:30.992Z,2.00
2017-11-17T14:24:59.315Z,2.00
2017-11-17T14:27:27.660Z,2.00
2017-11-17T14:29:56.044Z,2.30
2017-11-17T14:32:24.381Z,2.40
2017-11-17T14:34:52.374Z,2.40
2017-11-17T14:37:20.941Z,2.40
2017-11-17T14:39:49.263Z,2.20
2017-11-17T14:42:17.587Z,2.10
2017-11-17T14:44:45.963Z,2.10
2017-11-17T14:47:14.322Z,2.00
2017-11-17T14:49:43.411Z,2.00
2017-11-17T14:52:12.547Z,2.00
2017-11-17T14:54:40.876Z,2.00
2017-11-17T14:57:09.589Z,2.00
2017-11-17T14:59:38.677Z,2.10
2017-11-17T15:02:07.145Z,2.00
2017-11-17T15:04:35.915Z,2.10
2017-11-17T15:07:04.236Z,2.00
2017-11-17T15:09:32.592Z,2.10
2017-11-17T15:12:01.152Z,2.10
2017-11-17T15:14:29.143Z,2.00
2017-11-17T15:16:58.252Z,2.10
2017-11-17T15:19:26.616Z,2.00
2017-11-17T15:21:55.575Z,2.10
2017-11-17T15:24:23.910Z,2.10
2017-11-17T15:26:52.287Z,2.10
2017-11-17T15:29:20.482Z,2.10
2017-11-17T15:31:48.817Z,2.20
2017-11-17T15:34:17.347Z,2.20
2017-11-17T15:36:45.675Z,2.20
2017-11-17T15:39:13.940Z,2.20
2017-11-17T15:41:43.254Z,2.10
2017-11-17T15:44:11.660Z,2.10
2017-11-17T15:46:40.205Z,2.10
2017-11-17T15:49:09.503Z,2.10
2017-11-17T15:51:39.663Z,2.10
2017-11-17T15:54:07.652Z,2.10
2017-11-17T15:56:36.214Z,2.10
2017-11-17T15:59:03.881Z,2.10
2017-11-17T16:01:31.871Z,2.10
2017-11-17T16:04:00.061Z,2.10
2017-11-17T16:06:28.267Z,2.10
2017-11-17T16:08:56.591Z,2.10
2017-11-17T16:11:24.674Z,2.10
2017-11-17T16:13:53.003Z,2.10
2017-11-17T16:16:21.573Z,2.10
2017-11-17T16:18:49.904Z,2.10
2017-11-17T16:21:17.909Z,2.10
2017-11-17T16:23:45.938Z,2.20
2017-11-17T16:26:14.473Z,2.20
2017-11-17T16:28:42.469Z,2.10
2017-11-17T16:31:11.488Z,2.10
2017-11-17T16:33:39.544Z,2.10
2017-11-17T16:36:07.867Z,2.10
2017-11-17T16:38:36.233Z,2.10
2017-11-17T16:41:05.193Z,2.10
2017-11-17T16:43:33.528Z,2.10
2017-11-17T16:46:01.221Z,2.10
2017-11-17T16:48:29.235Z,2.10
2017-11-17T16:50:57.299Z,2.10
2017-11-17T16:53:26.387Z,2.10
2017-11-17T16:55:55.152Z,2.10
2017-11-17T16:58:22.833Z,2.10
2017-11-17T17:00:51.930Z,2.30
2017-11-17T17:03:21.067Z,2.40
2017-11-17T17:05:49.386Z,2.30
2017-11-17T17:08:17.755Z,2.30
2017-11-17T17:10:45.444Z,2.30
2017-11-17T17:13:13.879Z,2.30
2017-11-17T17:15:42.563Z,2.30
2017-11-17T17:18:10.614Z,2.30
2017-11-17T17:20:38.612Z,2.20
2017-11-17T17:23:06.939Z,2.20
2017-11-17T17:25:35.571Z,2.10
2017-11-17T17:28:03.232Z,2.10
2017-11-17T17:30:31.736Z,2.10
2017-11-17T17:33:00.087Z,2.10
2017-11-17T17:35:28.420Z,2.10
2017-11-17T17:37:56.756Z,2.10
2017-11-17T17:40:25.127Z,2.10
2017-11-17T17:42:53.460Z,2.10
2017-11-17T17:45:21.831Z,2.10
2017-11-17T17:47:50.181Z,2.20
2017-11-17T17:50:19.271Z,2.20
2017-11-17T17:52:48.382Z,2.10
2017-11-17T17:55:17.164Z,2.20
2017-11-17T17:57:45.708Z,2.20
2017-11-17T18:00:13.735Z,2.10
2017-11-17T18:02:42.353Z,2.10
2017-11-17T18:05:10.684Z,2.10
2017-11-17T18:07:38.727Z,2.10
2017-11-17T18:10:07.108Z,2.20
2017-11-17T18:12:35.478Z,2.10
2017-11-17T18:15:03.837Z,2.20
2017-11-17T18:17:32.158Z,2.20
2017-11-17T18:20:01.337Z,2.20
2017-11-17T18:22:29.880Z,2.20
2017-11-17T18:24:58.380Z,2.20
2017-11-17T18:27:26.723Z,2.20
2017-11-17T18:29:54.401Z,2.20
2017-11-17T18:32:22.961Z,2.20
2017-11-17T18:34:51.327Z,2.10
2017-11-17T18:37:19.918Z,2.20
2017-11-17T18:39:48.430Z,2.20
2017-11-17T18:42:16.771Z,2.20
2017-11-17T18:44:46.111Z,2.30
2017-11-17T18:47:14.655Z,2.20
2017-11-17T18:49:43.233Z,2.30
2017-11-17T18:52:12.395Z,2.30
2017-11-17T18:54:40.575Z,2.30
2017-11-17T18:57:09.940Z,2.20
2017-11-17T18:59:38.083Z,2.20
2017-11-17T19:02:06.589Z,2.20
2017-11-17T19:04:34.989Z,2.30
2017-11-17T19:07:04.275Z,2.40
2017-11-17T19:09:32.792Z,2.40
2017-11-17T19:12:01.911Z,2.30
2017-11-17T19:14:31.262Z,2.30
2017-11-17T19:16:59.793Z,2.30
2017-11-17T19:19:28.123Z,2.30
2017-11-17T19:21:56.731Z,2.20
2017-11-17T19:24:25.834Z,2.20
2017-11-17T19:26:54.159Z,2.20
2017-11-17T19:29:23.636Z,2.20
2017-11-17T19:31:51.961Z,2.20
2017-11-17T19:34:20.355Z,2.20
2017-11-17T19:36:49.454Z,2.20
2017-11-17T19:39:18.551Z,2.20
2017-11-17T19:41:47.013Z,2.20
2017-11-17T19:44:16.119Z,2.20
2017-11-17T19:46:45.270Z,2.20
2017-11-17T19:49:13.728Z,2.20
2017-11-17T19:51:42.752Z,2.20
2017-11-17T19:54:11.162Z,2.20
2017-11-17T19:56:41.203Z,2.20
2017-11-17T19:59:09.643Z,2.20
2017-11-17T20:01:38.046Z,2.20
2017-11-17T20:04:06.534Z,2.30
2017-11-17T20:06:36.065Z,2.30
2017-11-17T20:09:03.793Z,2.30
2017-11-17T20:11:32.912Z,2.30
2017-11-17T20:14:01.260Z,2.30
2017-11-17T20:16:30.593Z,2.30
2017-11-17T20:18:59.123Z,2.30
2017-11-17T20:21:27.555Z,2.30
2017-11-17T20:23:55.893Z,2.30
2017-11-17T20:26:25.213Z,2.20
2017-11-17T20:28:54.587Z,2.30
2017-11-17T20:31:24.982Z,2.30
2017-11-17T20:33:53.429Z,2.20
2017-11-17T20:36:21.773Z,2.30
2017-11-17T20:38:50.966Z,2.30
2017-11-17T20:41:21.400Z,2.20
2017-11-17T20:43:49.746Z,2.30
2017-11-17T20:46:18.262Z,2.30
2017-11-17T20:48:46.626Z,2.30
2017-11-17T20:51:15.716Z,2.20
2017-11-17T20:53:44.840Z,2.30
2017-11-17T20:56:13.561Z,2.20
2017-11-17T20:58:41.913Z,2.20
2017-11-17T21:01:10.312Z,2.30
2017-11-17T21:03:38.633Z,2.20
2017-11-17T21:06:07.730Z,2.30
2017-11-17T21:08:37.154Z,2.30
2017-11-17T21:11:05.514Z,2.20
2017-11-17T21:13:33.956Z,2.30
2017-11-17T21:16:03.210Z,2.30
2017-11-17T21:18:31.568Z,2.20
2017-11-17T21:20:59.942Z,2.30
2017-11-17T21:23:28.270Z,2.20
2017-11-17T21:25:56.602Z,2.30
2017-11-17T21:28:25.783Z,2.30
2017-11-17T21:30:55.715Z,2.30
2017-11-17T21:33:24.522Z,2.30
2017-11-17T21:35:53.293Z,2.30
2017-11-17T21:38:21.612Z,2.30
2017-11-17T21:40:49.972Z,2.30
2017-11-17T21:43:18.327Z,2.30
2017-11-17T21:45:46.871Z,2.30
2017-11-17T21:48:15.980Z,2.70
2017-11-17T21:50:44.312Z,2.70
2017-11-17T21:53:12.640Z,2.90
2017-11-17T21:55:40.979Z,3.00
2017-11-17T21:58:09.515Z,3.00
2017-11-17T22:00:37.889Z,2.80
2017-11-17T22:03:06.220Z,2.60
2017-11-17T22:05:34.825Z,2.50
2017-11-17T22:08:03.202Z,2.50
2017-11-17T22:10:32.496Z,2.40
2017-11-17T22:13:01.588Z,2.40
2017-11-17T22:15:30.720Z,2.40
2017-11-17T22:17:59.047Z,2.30
2017-11-17T22:20:28.138Z,2.40
2017-11-17T22:22:56.696Z,2.30
2017-11-17T22:25:25.024Z,2.40
2017-11-17T22:27:53.781Z,2.40
2017-11-17T22:30:22.189Z,2.30
2017-11-17T22:32:50.514Z,2.30
2017-11-17T22:35:18.876Z,2.30
2017-11-17T22:37:47.197Z,2.40
2017-11-17T22:40:16.284Z,2.50
2017-11-17T22:42:45.427Z,2.40
2017-11-17T22:45:13.760Z,2.40
2017-11-17T22:47:42.845Z,2.40
2017-11-17T22:50:11.435Z,2.40
2017-11-17T22:52:40.523Z,2.40
2017-11-17T22:55:09.619Z,2.40
2017-11-17T22:57:37.960Z,2.40
2017-11-17T23:00:06.284Z,2.50
2017-11-17T23:02:35.371Z,2.40
2017-11-17T23:05:04.518Z,2.50
2017-11-17T23:07:32.840Z,2.40
2017-11-17T23:10:01.957Z,2.40
2017-11-17T23:12:30.309Z,2.40
2017-11-17T23:14:58.744Z,2.30
2017-11-17T23:17:27.235Z,2.30
2017-11-17T23:19:56.221Z,2.30
2017-11-17T23:22:25.135Z,2.30
2017-11-17T23:24:53.810Z,2.30
2017-11-17T23:27:22.127Z,2.30
2017-11-17T23:29:50.464Z,2.30
2017-11-17T23:32:18.839Z,2.30
2017-11-17T23:34:47.195Z,2.30
2017-11-17T23:37:15.522Z,2.30
2017-11-17T23:39:44.860Z,2.50
2017-11-17T23:42:13.207Z,2.50
2017-11-17T23:44:41.538Z,2.50
2017-11-17T23:47:09.910Z,2.50
2017-11-17T23:49:38.111Z,2.50
2017-11-17T23:52:05.779Z,2.50
2017-11-17T23:54:33.680Z,2.40
2017-11-17T23:57:02.197Z,2.40
2017-11-17T23:59:30.529Z,2.40
